sensor_id;sensor_type;location;lat;lon;timestamp;temperature;humidity
16801;DHT22;8518;53.236;10.384;2023-01-20T00:01:29;0.30;99.90
16801;DHT22;8518;53.236;10.384;2023-01-20T00:03:59;0.30;99.90
16801;DHT22;8518;53.236;10.384;2023-01-20T00:06:25;0.20;99.90
16801;DHT22;8518;53.236;10.384;2023-01-20T00:08:59;0.30;99.90
16801;DHT22;8518;53.236;10.384;2023-01-20T00:11:25;0.30;99.90
16801;DHT22;8518;53.236;10.384;2023-01-20T00:13:56;0.20;99.90
16801;DHT22;8518;53.236;10.384;2023-01-20T00:16:22;0.20;99.90
16801;DHT22;8518;53.236;10.384;2023-01-20T00:18:48;0.20;99.90
16801;DHT22;8518;53.236;10.384;2023-01-20T00:21:14;0.50;99.90
16801;DHT22;8518;53.236;10.384;2023-01-20T00:23:43;0.30;99.90
16801;DHT22;8518;53.236;10.384;2023-01-20T00:26:21;0.30;99.90
16801;DHT22;8518;53.236;10.384;2023-01-20T00:28:48;0.30;99.90
16801;DHT22;8518;53.236;10.384;2023-01-20T00:31:43;0.30;99.90
16801;DHT22;8518;53.236;10.384;2023-01-20T00:34:11;0.40;99.90
16801;DHT22;8518;53.236;10.384;2023-01-20T00:36:37;0.40;99.90
16801;DHT22;8518;53.236;10.384;2023-01-20T00:39:03;0.50;99.90
16801;DHT22;8518;53.236;10.384;2023-01-20T00:41:33;0.50;99.90
16801;DHT22;8518;53.236;10.384;2023-01-20T00:43:58;0.60;99.90
16801;DHT22;8518;53.236;10.384;2023-01-20T00:46:24;0.60;99.90
16801;DHT22;8518;53.236;10.384;2023-01-20T00:48:50;0.60;99.90
16801;DHT22;8518;53.236;10.384;2023-01-20T00:51:15;0.70;99.90
16801;DHT22;8518;53.236;10.384;2023-01-20T00:53:44;0.70;99.90
16801;DHT22;8518;53.236;10.384;2023-01-20T00:56:10;0.70;99.90
16801;DHT22;8518;53.236;10.384;2023-01-20T00:58:35;0.70;99.90
16801;DHT22;8518;53.236;10.384;2023-01-20T01:01:01;0.70;99.90
16801;DHT22;8518;53.236;10.384;2023-01-20T01:03:27;0.70;99.90
16801;DHT22;8518;53.236;10.384;2023-01-20T01:05:53;0.70;99.90
16801;DHT22;8518;53.236;10.384;2023-01-20T01:08:19;0.70;99.90
16801;DHT22;8518;53.236;10.384;2023-01-20T01:10:44;0.70;99.90
16801;DHT22;8518;53.236;10.384;2023-01-20T01:13:10;0.80;99.90
16801;DHT22;8518;53.236;10.384;2023-01-20T01:15:37;0.80;99.90
16801;DHT22;8518;53.236;10.384;2023-01-20T01:18:02;0.80;99.90
16801;DHT22;8518;53.236;10.384;2023-01-20T01:20:28;0.90;99.90
16801;DHT22;8518;53.236;10.384;2023-01-20T01:22:54;0.80;99.90
16801;DHT22;8518;53.236;10.384;2023-01-20T01:25:20;0.80;99.90
16801;DHT22;8518;53.236;10.384;2023-01-20T01:27:46;0.90;99.90
16801;DHT22;8518;53.236;10.384;2023-01-20T01:30:12;0.90;99.90
16801;DHT22;8518;53.236;10.384;2023-01-20T01:32:37;0.90;99.90
16801;DHT22;8518;53.236;10.384;2023-01-20T01:35:04;1.00;99.90
16801;DHT22;8518;53.236;10.384;2023-01-20T01:37:29;1.00;99.90
16801;DHT22;8518;53.236;10.384;2023-01-20T01:39:55;1.00;99.90
16801;DHT22;8518;53.236;10.384;2023-01-20T01:42:24;1.10;99.90
16801;DHT22;8518;53.236;10.384;2023-01-20T01:47:48;1.00;99.90
16801;DHT22;8518;53.236;10.384;2023-01-20T01:50:20;1.00;99.90
16801;DHT22;8518;53.236;10.384;2023-01-20T01:52:50;1.00;99.90
16801;DHT22;8518;53.236;10.384;2023-01-20T01:55:18;1.00;99.90
16801;DHT22;8518;53.236;10.384;2023-01-20T01:57:46;0.90;99.90
16801;DHT22;8518;53.236;10.384;2023-01-20T02:00:12;0.90;99.90
16801;DHT22;8518;53.236;10.384;2023-01-20T02:02:39;1.00;99.90
16801;DHT22;8518;53.236;10.384;2023-01-20T02:05:06;1.00;99.90
16801;DHT22;8518;53.236;10.384;2023-01-20T02:07:32;1.00;99.90
16801;DHT22;8518;53.236;10.384;2023-01-20T02:09:59;1.00;99.90
16801;DHT22;8518;53.236;10.384;2023-01-20T02:12:25;1.00;99.90
16801;DHT22;8518;53.236;10.384;2023-01-20T02:14:53;1.00;99.90
16801;DHT22;8518;53.236;10.384;2023-01-20T02:30:56;0.80;99.90
16801;DHT22;8518;53.236;10.384;2023-01-20T02:36:14;0.80;99.90
16801;DHT22;8518;53.236;10.384;2023-01-20T02:38:55;0.80;99.90
16801;DHT22;8518;53.236;10.384;2023-01-20T02:47:10;0.90;99.90
16801;DHT22;8518;53.236;10.384;2023-01-20T02:49:39;0.90;99.90
16801;DHT22;8518;53.236;10.384;2023-01-20T02:52:14;0.90;99.90
16801;DHT22;8518;53.236;10.384;2023-01-20T02:54:47;1.00;99.90
16801;DHT22;8518;53.236;10.384;2023-01-20T02:57:16;1.00;99.90
16801;DHT22;8518;53.236;10.384;2023-01-20T02:59:46;0.90;99.90
16801;DHT22;8518;53.236;10.384;2023-01-20T03:02:18;0.90;99.90
16801;DHT22;8518;53.236;10.384;2023-01-20T03:05:12;1.00;99.90
16801;DHT22;8518;53.236;10.384;2023-01-20T03:07:39;0.90;99.90
16801;DHT22;8518;53.236;10.384;2023-01-20T03:10:09;1.00;99.90
16801;DHT22;8518;53.236;10.384;2023-01-20T03:12:39;1.00;99.90
16801;DHT22;8518;53.236;10.384;2023-01-20T03:15:07;1.00;99.90
16801;DHT22;8518;53.236;10.384;2023-01-20T03:17:33;1.00;99.90
16801;DHT22;8518;53.236;10.384;2023-01-20T03:20:00;0.90;99.90
16801;DHT22;8518;53.236;10.384;2023-01-20T03:22:27;0.90;99.90
16801;DHT22;8518;53.236;10.384;2023-01-20T03:24:55;0.80;99.90
16801;DHT22;8518;53.236;10.384;2023-01-20T03:27:21;0.80;99.90
16801;DHT22;8518;53.236;10.384;2023-01-20T03:29:46;0.80;99.90
16801;DHT22;8518;53.236;10.384;2023-01-20T03:32:12;0.80;99.90
16801;DHT22;8518;53.236;10.384;2023-01-20T03:34:40;0.70;99.90
16801;DHT22;8518;53.236;10.384;2023-01-20T03:37:08;0.70;99.90
16801;DHT22;8518;53.236;10.384;2023-01-20T03:39:35;0.60;99.90
16801;DHT22;8518;53.236;10.384;2023-01-20T03:42:22;0.60;99.90
16801;DHT22;8518;53.236;10.384;2023-01-20T03:45:54;0.50;99.90
16801;DHT22;8518;53.236;10.384;2023-01-20T03:48:07;0.50;99.90
16801;DHT22;8518;53.236;10.384;2023-01-20T03:50:56;0.40;99.90
16801;DHT22;8518;53.236;10.384;2023-01-20T03:53:38;0.40;99.90
16801;DHT22;8518;53.236;10.384;2023-01-20T03:56:34;0.30;99.90
16801;DHT22;8518;53.236;10.384;2023-01-20T03:59:01;0.30;99.90
16801;DHT22;8518;53.236;10.384;2023-01-20T04:01:35;0.30;99.90
16801;DHT22;8518;53.236;10.384;2023-01-20T04:04:03;0.30;99.90
16801;DHT22;8518;53.236;10.384;2023-01-20T04:06:30;0.20;99.90
16801;DHT22;8518;53.236;10.384;2023-01-20T04:09:08;0.30;99.90
16801;DHT22;8518;53.236;10.384;2023-01-20T04:11:33;0.30;99.90
16801;DHT22;8518;53.236;10.384;2023-01-20T04:13:59;0.30;99.90
16801;DHT22;8518;53.236;10.384;2023-01-20T04:16:26;0.30;99.90
16801;DHT22;8518;53.236;10.384;2023-01-20T04:18:52;0.40;99.90
16801;DHT22;8518;53.236;10.384;2023-01-20T04:21:34;0.30;99.90
16801;DHT22;8518;53.236;10.384;2023-01-20T04:24:42;0.40;99.90
16801;DHT22;8518;53.236;10.384;2023-01-20T04:27:08;0.40;99.90
16801;DHT22;8518;53.236;10.384;2023-01-20T04:29:34;0.50;99.90
16801;DHT22;8518;53.236;10.384;2023-01-20T04:32:00;0.50;99.90
16801;DHT22;8518;53.236;10.384;2023-01-20T04:34:28;0.60;99.90
16801;DHT22;8518;53.236;10.384;2023-01-20T04:36:54;0.60;99.90
16801;DHT22;8518;53.236;10.384;2023-01-20T04:39:20;0.60;99.90
16801;DHT22;8518;53.236;10.384;2023-01-20T04:41:46;0.60;99.90
16801;DHT22;8518;53.236;10.384;2023-01-20T04:44:12;0.70;99.90
16801;DHT22;8518;53.236;10.384;2023-01-20T04:46:38;0.60;99.90
16801;DHT22;8518;53.236;10.384;2023-01-20T04:49:03;0.60;99.90
16801;DHT22;8518;53.236;10.384;2023-01-20T04:51:31;0.70;99.90
16801;DHT22;8518;53.236;10.384;2023-01-20T04:53:58;0.70;99.90
16801;DHT22;8518;53.236;10.384;2023-01-20T04:56:23;0.60;99.90
16801;DHT22;8518;53.236;10.384;2023-01-20T04:58:49;0.60;99.90
16801;DHT22;8518;53.236;10.384;2023-01-20T05:01:15;0.60;99.90
16801;DHT22;8518;53.236;10.384;2023-01-20T05:03:40;0.60;99.90
16801;DHT22;8518;53.236;10.384;2023-01-20T05:06:09;0.60;99.90
16801;DHT22;8518;53.236;10.384;2023-01-20T05:08:35;0.60;99.90
16801;DHT22;8518;53.236;10.384;2023-01-20T05:11:01;0.60;99.90
16801;DHT22;8518;53.236;10.384;2023-01-20T05:13:27;0.70;99.90
16801;DHT22;8518;53.236;10.384;2023-01-20T05:15:54;0.70;99.90
16801;DHT22;8518;53.236;10.384;2023-01-20T05:18:20;0.60;99.90
16801;DHT22;8518;53.236;10.384;2023-01-20T05:20:49;0.60;99.90
16801;DHT22;8518;53.236;10.384;2023-01-20T05:23:18;0.60;99.90
16801;DHT22;8518;53.236;10.384;2023-01-20T05:25:49;0.50;99.90
16801;DHT22;8518;53.236;10.384;2023-01-20T05:28:15;0.50;99.90
16801;DHT22;8518;53.236;10.384;2023-01-20T05:30:44;0.60;99.90
16801;DHT22;8518;53.236;10.384;2023-01-20T05:33:10;0.60;99.90
16801;DHT22;8518;53.236;10.384;2023-01-20T05:35:40;0.60;99.90
16801;DHT22;8518;53.236;10.384;2023-01-20T05:38:06;0.60;99.90
16801;DHT22;8518;53.236;10.384;2023-01-20T05:40:32;0.50;99.90
16801;DHT22;8518;53.236;10.384;2023-01-20T05:42:58;0.40;99.90
16801;DHT22;8518;53.236;10.384;2023-01-20T05:45:24;0.40;99.90
16801;DHT22;8518;53.236;10.384;2023-01-20T05:47:56;0.50;99.90
16801;DHT22;8518;53.236;10.384;2023-01-20T05:50:23;0.50;99.90
16801;DHT22;8518;53.236;10.384;2023-01-20T05:52:49;0.60;99.90
16801;DHT22;8518;53.236;10.384;2023-01-20T05:55:15;0.50;99.90
16801;DHT22;8518;53.236;10.384;2023-01-20T05:57:41;0.50;99.90
16801;DHT22;8518;53.236;10.384;2023-01-20T06:00:07;0.50;99.90
16801;DHT22;8518;53.236;10.384;2023-01-20T06:02:33;0.40;99.90
16801;DHT22;8518;53.236;10.384;2023-01-20T06:04:59;0.40;99.90
16801;DHT22;8518;53.236;10.384;2023-01-20T06:07:28;0.30;99.90
16801;DHT22;8518;53.236;10.384;2023-01-20T06:09:54;0.30;99.90
16801;DHT22;8518;53.236;10.384;2023-01-20T06:12:22;0.30;99.90
16801;DHT22;8518;53.236;10.384;2023-01-20T06:14:49;0.30;99.90
16801;DHT22;8518;53.236;10.384;2023-01-20T06:17:15;0.30;99.90
16801;DHT22;8518;53.236;10.384;2023-01-20T06:19:40;0.30;99.90
16801;DHT22;8518;53.236;10.384;2023-01-20T06:22:07;0.30;99.90
16801;DHT22;8518;53.236;10.384;2023-01-20T06:24:32;0.20;99.90
16801;DHT22;8518;53.236;10.384;2023-01-20T06:26:58;0.20;99.90
16801;DHT22;8518;53.236;10.384;2023-01-20T06:29:23;0.30;99.90
16801;DHT22;8518;53.236;10.384;2023-01-20T06:31:49;0.30;99.90
16801;DHT22;8518;53.236;10.384;2023-01-20T06:34:15;0.40;99.90
16801;DHT22;8518;53.236;10.384;2023-01-20T06:36:41;0.50;99.90
16801;DHT22;8518;53.236;10.384;2023-01-20T06:39:10;0.50;99.90
16801;DHT22;8518;53.236;10.384;2023-01-20T06:41:35;0.60;99.90
16801;DHT22;8518;53.236;10.384;2023-01-20T06:44:01;0.60;99.90
16801;DHT22;8518;53.236;10.384;2023-01-20T06:46:27;0.70;99.90
16801;DHT22;8518;53.236;10.384;2023-01-20T06:48:52;0.70;99.90
16801;DHT22;8518;53.236;10.384;2023-01-20T06:51:24;0.60;99.90
16801;DHT22;8518;53.236;10.384;2023-01-20T06:53:50;0.60;99.90
16801;DHT22;8518;53.236;10.384;2023-01-20T06:56:20;0.60;99.90
16801;DHT22;8518;53.236;10.384;2023-01-20T06:58:46;0.70;99.90
16801;DHT22;8518;53.236;10.384;2023-01-20T07:01:21;0.70;99.90
16801;DHT22;8518;53.236;10.384;2023-01-20T07:03:47;0.70;99.90
16801;DHT22;8518;53.236;10.384;2023-01-20T07:06:42;0.70;99.90
16801;DHT22;8518;53.236;10.384;2023-01-20T07:09:10;0.50;99.90
16801;DHT22;8518;53.236;10.384;2023-01-20T07:11:36;0.40;99.90
16801;DHT22;8518;53.236;10.384;2023-01-20T07:14:05;0.60;99.90
16801;DHT22;8518;53.236;10.384;2023-01-20T07:16:31;0.20;99.90
16801;DHT22;8518;53.236;10.384;2023-01-20T07:18:57;0.20;99.90
16801;DHT22;8518;53.236;10.384;2023-01-20T07:21:23;0.20;99.90
16801;DHT22;8518;53.236;10.384;2023-01-20T07:23:49;0.30;99.90
16801;DHT22;8518;53.236;10.384;2023-01-20T07:26:18;0.40;99.90
16801;DHT22;8518;53.236;10.384;2023-01-20T07:28:45;0.50;99.90
16801;DHT22;8518;53.236;10.384;2023-01-20T07:33:38;0.70;99.90
16801;DHT22;8518;53.236;10.384;2023-01-20T07:36:06;0.70;99.90
16801;DHT22;8518;53.236;10.384;2023-01-20T07:38:32;0.60;99.90
16801;DHT22;8518;53.236;10.384;2023-01-20T07:40:59;0.50;99.90
16801;DHT22;8518;53.236;10.384;2023-01-20T07:43:25;0.40;99.90
16801;DHT22;8518;53.236;10.384;2023-01-20T07:45:59;0.20;99.90
16801;DHT22;8518;53.236;10.384;2023-01-20T07:48:30;0.10;99.90
16801;DHT22;8518;53.236;10.384;2023-01-20T07:50:57;0.20;99.90
16801;DHT22;8518;53.236;10.384;2023-01-20T07:53:38;0.20;99.90
16801;DHT22;8518;53.236;10.384;2023-01-20T07:56:06;0.20;99.90
16801;DHT22;8518;53.236;10.384;2023-01-20T07:58:32;0.20;99.90
16801;DHT22;8518;53.236;10.384;2023-01-20T08:01:14;0.20;99.90
16801;DHT22;8518;53.236;10.384;2023-01-20T08:03:41;0.10;99.90
16801;DHT22;8518;53.236;10.384;2023-01-20T08:06:09;0.10;99.90
16801;DHT22;8518;53.236;10.384;2023-01-20T08:08:35;0.10;99.90
16801;DHT22;8518;53.236;10.384;2023-01-20T08:11:02;0.20;99.90
16801;DHT22;8518;53.236;10.384;2023-01-20T08:13:28;0.20;99.90
16801;DHT22;8518;53.236;10.384;2023-01-20T08:15:59;0.20;99.90
16801;DHT22;8518;53.236;10.384;2023-01-20T08:18:25;0.20;99.90
16801;DHT22;8518;53.236;10.384;2023-01-20T08:20:50;0.40;99.90
16801;DHT22;8518;53.236;10.384;2023-01-20T08:23:16;0.50;99.90
16801;DHT22;8518;53.236;10.384;2023-01-20T08:25:42;0.60;99.90
16801;DHT22;8518;53.236;10.384;2023-01-20T08:28:08;0.50;99.90
16801;DHT22;8518;53.236;10.384;2023-01-20T08:30:34;0.50;99.90
16801;DHT22;8518;53.236;10.384;2023-01-20T08:32:59;0.40;99.90
16801;DHT22;8518;53.236;10.384;2023-01-20T08:35:25;0.40;99.90
16801;DHT22;8518;53.236;10.384;2023-01-20T08:37:51;0.40;99.90
16801;DHT22;8518;53.236;10.384;2023-01-20T08:40:17;0.30;99.90
16801;DHT22;8518;53.236;10.384;2023-01-20T08:42:42;0.40;99.90
16801;DHT22;8518;53.236;10.384;2023-01-20T08:45:08;0.30;99.90
16801;DHT22;8518;53.236;10.384;2023-01-20T08:47:36;0.40;99.90
16801;DHT22;8518;53.236;10.384;2023-01-20T08:50:03;0.40;99.90
16801;DHT22;8518;53.236;10.384;2023-01-20T08:52:30;0.50;99.90
16801;DHT22;8518;53.236;10.384;2023-01-20T08:54:55;0.50;99.90
16801;DHT22;8518;53.236;10.384;2023-01-20T08:57:25;0.60;99.90
16801;DHT22;8518;53.236;10.384;2023-01-20T08:59:52;0.60;99.90
16801;DHT22;8518;53.236;10.384;2023-01-20T09:02:18;0.60;99.90
16801;DHT22;8518;53.236;10.384;2023-01-20T09:04:45;0.60;99.90
16801;DHT22;8518;53.236;10.384;2023-01-20T09:07:11;0.60;99.90
16801;DHT22;8518;53.236;10.384;2023-01-20T09:09:38;0.60;99.90
16801;DHT22;8518;53.236;10.384;2023-01-20T09:12:04;0.70;99.90
16801;DHT22;8518;53.236;10.384;2023-01-20T09:14:30;0.60;99.90
16801;DHT22;8518;53.236;10.384;2023-01-20T09:16:55;0.60;99.90
16801;DHT22;8518;53.236;10.384;2023-01-20T09:19:21;0.70;99.90
16801;DHT22;8518;53.236;10.384;2023-01-20T09:21:47;0.70;99.90
16801;DHT22;8518;53.236;10.384;2023-01-20T09:24:13;0.70;99.90
16801;DHT22;8518;53.236;10.384;2023-01-20T09:26:38;0.70;99.90
16801;DHT22;8518;53.236;10.384;2023-01-20T09:29:11;0.80;99.90
16801;DHT22;8518;53.236;10.384;2023-01-20T09:31:40;1.00;99.90
16801;DHT22;8518;53.236;10.384;2023-01-20T09:34:09;1.00;99.90
16801;DHT22;8518;53.236;10.384;2023-01-20T09:36:35;1.50;99.90
16801;DHT22;8518;53.236;10.384;2023-01-20T09:39:01;1.30;99.90
16801;DHT22;8518;53.236;10.384;2023-01-20T09:41:48;1.50;99.90
16801;DHT22;8518;53.236;10.384;2023-01-20T09:50:12;1.90;99.90
16801;DHT22;8518;53.236;10.384;2023-01-20T09:53:10;2.00;99.90
16801;DHT22;8518;53.236;10.384;2023-01-20T09:56:21;2.10;99.90
16801;DHT22;8518;53.236;10.384;2023-01-20T09:59:00;2.20;99.90
16801;DHT22;8518;53.236;10.384;2023-01-20T10:01:38;2.10;99.90
16801;DHT22;8518;53.236;10.384;2023-01-20T10:06:49;2.00;99.90
16801;DHT22;8518;53.236;10.384;2023-01-20T10:09:31;2.10;99.90
16801;DHT22;8518;53.236;10.384;2023-01-20T10:14:45;2.40;99.90
16801;DHT22;8518;53.236;10.384;2023-01-20T10:17:22;2.70;99.90
16801;DHT22;8518;53.236;10.384;2023-01-20T10:19:54;3.70;99.90
16801;DHT22;8518;53.236;10.384;2023-01-20T10:22:33;5.50;99.90
16801;DHT22;8518;53.236;10.384;2023-01-20T10:25:07;7.70;99.90
16801;DHT22;8518;53.236;10.384;2023-01-20T10:27:44;9.60;99.90
16801;DHT22;8518;53.236;10.384;2023-01-20T10:30:13;11.40;99.90
16801;DHT22;8518;53.236;10.384;2023-01-20T10:32:57;13.40;99.90
16801;DHT22;8518;53.236;10.384;2023-01-20T10:35:26;15.00;92.60
16801;DHT22;8518;53.236;10.384;2023-01-20T10:37:53;16.00;89.90
16801;DHT22;8518;53.236;10.384;2023-01-20T10:40:56;17.00;77.70
16801;DHT22;8518;53.236;10.384;2023-01-20T10:43:24;18.10;72.30
16801;DHT22;8518;53.236;10.384;2023-01-20T10:48:53;19.60;57.90
16801;DHT22;8518;53.236;10.384;2023-01-20T10:54:27;19.50;54.90
16801;DHT22;8518;53.236;10.384;2023-01-20T10:56:58;19.60;54.20
16801;DHT22;8518;53.236;10.384;2023-01-20T10:59:30;20.00;53.10
16801;DHT22;8518;53.236;10.384;2023-01-20T11:02:01;20.60;51.50
16801;DHT22;8518;53.236;10.384;2023-01-20T11:04:28;20.70;49.20
16801;DHT22;8518;53.236;10.384;2023-01-20T11:06:57;19.70;49.00
16801;DHT22;8518;53.236;10.384;2023-01-20T11:09:42;18.30;50.40
16801;DHT22;8518;53.236;10.384;2023-01-20T11:12:24;15.90;53.80
16801;DHT22;8518;53.236;10.384;2023-01-20T11:17:19;13.10;71.70
16801;DHT22;8518;53.236;10.384;2023-01-20T11:19:51;12.30;83.60
16801;DHT22;8518;53.236;10.384;2023-01-20T11:22:25;11.90;91.50
16801;DHT22;8518;53.236;10.384;2023-01-20T11:24:56;11.70;92.50
16801;DHT22;8518;53.236;10.384;2023-01-20T11:27:26;11.00;94.20
16801;DHT22;8518;53.236;10.384;2023-01-20T11:30:02;10.20;97.80
16801;DHT22;8518;53.236;10.384;2023-01-20T11:32:33;9.70;99.90
16801;DHT22;8518;53.236;10.384;2023-01-20T11:35:01;9.40;99.90
16801;DHT22;8518;53.236;10.384;2023-01-20T11:37:42;9.00;99.90
16801;DHT22;8518;53.236;10.384;2023-01-20T11:40:26;8.80;99.90
16801;DHT22;8518;53.236;10.384;2023-01-20T11:42:53;8.50;99.90
16801;DHT22;8518;53.236;10.384;2023-01-20T11:45:33;8.20;99.90
16801;DHT22;8518;53.236;10.384;2023-01-20T11:48:16;8.10;99.90
16801;DHT22;8518;53.236;10.384;2023-01-20T11:50:53;7.90;99.90
16801;DHT22;8518;53.236;10.384;2023-01-20T11:53:27;7.30;99.90
16801;DHT22;8518;53.236;10.384;2023-01-20T11:56:02;7.10;99.90
16801;DHT22;8518;53.236;10.384;2023-01-20T12:01:48;7.10;99.90
16801;DHT22;8518;53.236;10.384;2023-01-20T12:04:41;7.20;99.90
16801;DHT22;8518;53.236;10.384;2023-01-20T12:07:33;7.50;99.90
16801;DHT22;8518;53.236;10.384;2023-01-20T12:10:11;8.00;99.90
16801;DHT22;8518;53.236;10.384;2023-01-20T12:12:42;8.50;99.90
16801;DHT22;8518;53.236;10.384;2023-01-20T12:18:00;10.40;99.90
16801;DHT22;8518;53.236;10.384;2023-01-20T12:26:12;15.00;91.30
16801;DHT22;8518;53.236;10.384;2023-01-20T12:31:19;15.30;87.40
16801;DHT22;8518;53.236;10.384;2023-01-20T12:34:08;14.90;84.80
16801;DHT22;8518;53.236;10.384;2023-01-20T12:49:01;18.00;68.80
16801;DHT22;8518;53.236;10.384;2023-01-20T12:51:22;16.80;69.40
16801;DHT22;8518;53.236;10.384;2023-01-20T12:54:05;15.10;72.20
16801;DHT22;8518;53.236;10.384;2023-01-20T12:56:49;14.00;76.50
16801;DHT22;8518;53.236;10.384;2023-01-20T13:11:11;19.30;63.00
16801;DHT22;8518;53.236;10.384;2023-01-20T13:14:01;20.30;60.10
16801;DHT22;8518;53.236;10.384;2023-01-20T13:16:51;20.90;56.40
16801;DHT22;8518;53.236;10.384;2023-01-20T13:19:33;21.40;54.10
16801;DHT22;8518;53.236;10.384;2023-01-20T13:24:33;21.70;49.70
16801;DHT22;8518;53.236;10.384;2023-01-20T13:27:00;21.00;50.10
16801;DHT22;8518;53.236;10.384;2023-01-20T13:32:02;18.70;53.30
16801;DHT22;8518;53.236;10.384;2023-01-20T13:34:32;18.00;54.50
16801;DHT22;8518;53.236;10.384;2023-01-20T13:39:44;16.30;56.50
16801;DHT22;8518;53.236;10.384;2023-01-20T13:47:59;13.80;64.60
16801;DHT22;8518;53.236;10.384;2023-01-20T13:50:26;14.10;67.50
16801;DHT22;8518;53.236;10.384;2023-01-20T13:55:28;15.60;63.40
16801;DHT22;8518;53.236;10.384;2023-01-20T13:57:54;15.10;63.60
16801;DHT22;8518;53.236;10.384;2023-01-20T14:00:20;14.30;66.20
16801;DHT22;8518;53.236;10.384;2023-01-20T14:02:47;13.60;68.60
16801;DHT22;8518;53.236;10.384;2023-01-20T14:05:25;12.80;71.50
16801;DHT22;8518;53.236;10.384;2023-01-20T14:07:51;11.80;76.10
16801;DHT22;8518;53.236;10.384;2023-01-20T14:10:17;11.10;81.90
16801;DHT22;8518;53.236;10.384;2023-01-20T14:12:43;10.50;86.50
16801;DHT22;8518;53.236;10.384;2023-01-20T14:15:27;9.80;91.10
16801;DHT22;8518;53.236;10.384;2023-01-20T14:17:57;9.10;95.20
16801;DHT22;8518;53.236;10.384;2023-01-20T14:20:25;8.70;98.00
16801;DHT22;8518;53.236;10.384;2023-01-20T14:22:51;8.40;99.90
16801;DHT22;8518;53.236;10.384;2023-01-20T14:25:23;8.00;99.90
16801;DHT22;8518;53.236;10.384;2023-01-20T14:27:49;7.80;99.90
16801;DHT22;8518;53.236;10.384;2023-01-20T14:30:20;7.50;99.90
16801;DHT22;8518;53.236;10.384;2023-01-20T14:32:47;7.20;99.90
16801;DHT22;8518;53.236;10.384;2023-01-20T14:35:19;6.90;99.90
16801;DHT22;8518;53.236;10.384;2023-01-20T14:37:50;6.80;99.90
16801;DHT22;8518;53.236;10.384;2023-01-20T14:43:19;6.40;99.90
16801;DHT22;8518;53.236;10.384;2023-01-20T14:45:47;6.40;99.90
16801;DHT22;8518;53.236;10.384;2023-01-20T14:48:13;6.80;99.90
16801;DHT22;8518;53.236;10.384;2023-01-20T14:50:39;7.30;99.90
16801;DHT22;8518;53.236;10.384;2023-01-20T14:53:12;7.50;99.90
16801;DHT22;8518;53.236;10.384;2023-01-20T14:55:39;7.40;99.90
16801;DHT22;8518;53.236;10.384;2023-01-20T14:58:16;7.30;99.90
16801;DHT22;8518;53.236;10.384;2023-01-20T15:00:46;7.00;99.90
16801;DHT22;8518;53.236;10.384;2023-01-20T15:03:21;6.70;99.90
16801;DHT22;8518;53.236;10.384;2023-01-20T15:16:29;5.50;99.90
16801;DHT22;8518;53.236;10.384;2023-01-20T15:21:42;5.00;99.90
16801;DHT22;8518;53.236;10.384;2023-01-20T15:24:17;4.80;99.90
16801;DHT22;8518;53.236;10.384;2023-01-20T15:26:43;4.70;99.90
16801;DHT22;8518;53.236;10.384;2023-01-20T15:29:19;4.50;99.90
16801;DHT22;8518;53.236;10.384;2023-01-20T15:31:45;4.30;99.90
16801;DHT22;8518;53.236;10.384;2023-01-20T15:34:11;4.10;99.90
16801;DHT22;8518;53.236;10.384;2023-01-20T15:36:37;4.00;99.90
16801;DHT22;8518;53.236;10.384;2023-01-20T15:39:08;3.80;99.90
16801;DHT22;8518;53.236;10.384;2023-01-20T15:41:35;3.60;99.90
16801;DHT22;8518;53.236;10.384;2023-01-20T15:44:00;3.50;99.90
16801;DHT22;8518;53.236;10.384;2023-01-20T15:46:26;3.30;99.90
16801;DHT22;8518;53.236;10.384;2023-01-20T15:48:52;3.20;99.90
16801;DHT22;8518;53.236;10.384;2023-01-20T15:51:18;3.10;99.90
16801;DHT22;8518;53.236;10.384;2023-01-20T15:53:45;3.00;99.90
16801;DHT22;8518;53.236;10.384;2023-01-20T15:56:22;2.90;99.90
16801;DHT22;8518;53.236;10.384;2023-01-20T15:58:49;2.70;99.90
16801;DHT22;8518;53.236;10.384;2023-01-20T16:01:17;2.60;99.90
16801;DHT22;8518;53.236;10.384;2023-01-20T16:03:43;2.60;99.90
16801;DHT22;8518;53.236;10.384;2023-01-20T16:06:14;2.50;99.90
16801;DHT22;8518;53.236;10.384;2023-01-20T16:08:42;2.50;99.90
16801;DHT22;8518;53.236;10.384;2023-01-20T16:11:11;2.40;99.90
16801;DHT22;8518;53.236;10.384;2023-01-20T16:13:36;2.30;99.90
16801;DHT22;8518;53.236;10.384;2023-01-20T16:16:02;2.20;99.90
16801;DHT22;8518;53.236;10.384;2023-01-20T16:18:32;2.20;99.90
16801;DHT22;8518;53.236;10.384;2023-01-20T16:20:57;2.10;99.90
16801;DHT22;8518;53.236;10.384;2023-01-20T16:23:23;2.00;99.90
16801;DHT22;8518;53.236;10.384;2023-01-20T16:25:48;2.00;99.90
16801;DHT22;8518;53.236;10.384;2023-01-20T16:28:18;1.90;99.90
16801;DHT22;8518;53.236;10.384;2023-01-20T16:30:46;1.80;99.90
16801;DHT22;8518;53.236;10.384;2023-01-20T16:33:25;1.80;99.90
16801;DHT22;8518;53.236;10.384;2023-01-20T16:35:53;1.70;99.90
16801;DHT22;8518;53.236;10.384;2023-01-20T16:38:22;1.60;99.90
16801;DHT22;8518;53.236;10.384;2023-01-20T16:40:49;1.50;99.90
16801;DHT22;8518;53.236;10.384;2023-01-20T16:43:16;1.40;99.90
16801;DHT22;8518;53.236;10.384;2023-01-20T16:45:43;1.30;99.90
16801;DHT22;8518;53.236;10.384;2023-01-20T16:48:11;1.30;99.90
16801;DHT22;8518;53.236;10.384;2023-01-20T16:50:37;1.20;99.90
16801;DHT22;8518;53.236;10.384;2023-01-20T16:53:03;1.20;99.90
16801;DHT22;8518;53.236;10.384;2023-01-20T16:55:29;2.40;99.90
16801;DHT22;8518;53.236;10.384;2023-01-20T16:57:55;1.10;99.90
16801;DHT22;8518;53.236;10.384;2023-01-20T17:00:20;1.00;99.90
16801;DHT22;8518;53.236;10.384;2023-01-20T17:02:50;1.00;99.90
16801;DHT22;8518;53.236;10.384;2023-01-20T17:05:20;1.00;99.90
16801;DHT22;8518;53.236;10.384;2023-01-20T17:07:51;0.90;99.90
16801;DHT22;8518;53.236;10.384;2023-01-20T17:10:17;0.90;99.90
16801;DHT22;8518;53.236;10.384;2023-01-20T17:12:44;0.90;99.90
16801;DHT22;8518;53.236;10.384;2023-01-20T17:15:10;0.90;99.90
16801;DHT22;8518;53.236;10.384;2023-01-20T17:17:35;0.80;99.90
16801;DHT22;8518;53.236;10.384;2023-01-20T17:20:04;0.80;99.90
16801;DHT22;8518;53.236;10.384;2023-01-20T17:22:38;0.80;99.90
16801;DHT22;8518;53.236;10.384;2023-01-20T17:25:07;0.80;99.90
16801;DHT22;8518;53.236;10.384;2023-01-20T17:27:33;0.80;99.90
16801;DHT22;8518;53.236;10.384;2023-01-20T17:29:59;0.90;99.90
16801;DHT22;8518;53.236;10.384;2023-01-20T17:32:25;0.70;99.90
16801;DHT22;8518;53.236;10.384;2023-01-20T17:34:52;0.80;99.90
16801;DHT22;8518;53.236;10.384;2023-01-20T17:37:17;0.90;99.90
16801;DHT22;8518;53.236;10.384;2023-01-20T17:39:43;1.00;99.90
16801;DHT22;8518;53.236;10.384;2023-01-20T17:42:10;1.10;99.90
16801;DHT22;8518;53.236;10.384;2023-01-20T17:44:36;1.20;99.90
16801;DHT22;8518;53.236;10.384;2023-01-20T17:47:03;1.20;99.90
16801;DHT22;8518;53.236;10.384;2023-01-20T17:49:29;1.20;99.90
16801;DHT22;8518;53.236;10.384;2023-01-20T17:51:55;1.30;99.90
16801;DHT22;8518;53.236;10.384;2023-01-20T17:54:20;1.40;99.90
16801;DHT22;8518;53.236;10.384;2023-01-20T17:56:46;1.30;99.90
16801;DHT22;8518;53.236;10.384;2023-01-20T17:59:13;1.30;99.90